createdAt,value
2019-02-15T00:02:32.349Z,84.3
2019-02-15T00:07:32.209Z,83.8
2019-02-15T00:12:32.190Z,83.4
2019-02-15T00:17:32.347Z,83.8
2019-02-15T00:22:32.388Z,84
2019-02-15T00:27:32.431Z,85
2019-02-15T00:32:32.352Z,85
2019-02-15T00:37:32.399Z,84.4
2019-02-15T00:42:32.212Z,84.1
2019-02-15T00:47:32.235Z,83.4
2019-02-15T00:52:32.345Z,84
2019-02-15T00:57:32.217Z,83.7
2019-02-15T01:02:32.210Z,83.6
2019-02-15T01:07:32.387Z,85
2019-02-15T01:12:32.424Z,84.6
2019-02-15T01:17:32.242Z,84.3
2019-02-15T01:22:32.182Z,84.3
2019-02-15T01:27:32.256Z,84.2
2019-02-15T01:32:32.188Z,85.9
2019-02-15T01:37:32.244Z,85.4
2019-02-15T01:42:32.433Z,84.6
2019-02-15T01:47:32.465Z,84
2019-02-15T01:52:32.378Z,85.2
2019-02-15T01:57:32.244Z,85.8
2019-02-15T02:02:32.254Z,85.3
2019-02-15T02:07:32.239Z,85.5
2019-02-15T02:12:32.432Z,85.4
2019-02-15T02:17:32.525Z,84.5
2019-02-15T02:22:32.360Z,84.9
2019-02-15T02:27:32.259Z,85.5
2019-02-15T02:32:32.469Z,85.2
2019-02-15T02:37:32.263Z,85.9
2019-02-15T02:42:32.385Z,85.5
2019-02-15T02:47:32.370Z,85.5
2019-02-15T02:52:32.429Z,85.5
2019-02-15T02:57:32.428Z,85.4
2019-02-15T03:02:32.464Z,86
2019-02-15T03:07:32.247Z,86.5
2019-02-15T03:12:32.294Z,85.8
2019-02-15T03:17:32.301Z,85.7
2019-02-15T03:22:32.534Z,85.5
2019-02-15T03:27:32.567Z,86.2
2019-02-15T03:32:32.405Z,86.1
2019-02-15T03:37:32.519Z,85.3
2019-02-15T03:42:32.413Z,85.7
2019-02-15T03:47:32.517Z,85.9
2019-02-15T03:52:32.492Z,85.2
2019-02-15T03:57:32.310Z,85.5
2019-02-15T04:02:32.474Z,85.5
2019-02-15T04:07:32.308Z,86
2019-02-15T04:12:32.720Z,85
2019-02-15T04:17:32.466Z,84.8
2019-02-15T04:22:32.527Z,84.8
2019-02-15T04:27:32.324Z,85.9
2019-02-15T04:32:32.470Z,84.9
2019-02-15T04:37:35.562Z,84.6
2019-02-15T04:42:32.368Z,84.7
2019-02-15T04:47:32.341Z,85.9
2019-02-15T04:52:32.342Z,85.3
2019-02-15T04:57:32.368Z,84.9
2019-02-15T05:02:32.592Z,84.1
2019-02-15T05:07:32.346Z,84.3
2019-02-15T05:12:32.540Z,84.1
2019-02-15T05:17:32.357Z,84.2
2019-02-15T05:22:32.368Z,84.7
2019-02-15T05:27:32.535Z,84.6
2019-02-15T05:32:32.460Z,84.4
2019-02-15T05:37:32.350Z,85.4
2019-02-15T05:42:32.352Z,85.1
2019-02-15T05:47:32.369Z,84.2
2019-02-15T05:52:32.388Z,84.5
2019-02-15T05:57:32.525Z,84.4
2019-02-15T06:02:32.571Z,85.8
2019-02-15T06:07:32.623Z,86
2019-02-15T06:12:32.538Z,86.7
2019-02-15T06:17:32.595Z,86.9
2019-02-15T06:22:32.619Z,86.9
2019-02-15T06:27:32.547Z,86.5
2019-02-15T06:32:32.408Z,86.6
2019-02-15T06:37:32.645Z,87.7
2019-02-15T06:42:32.528Z,87.7
2019-02-15T06:47:32.484Z,87.4
2019-02-15T06:52:32.369Z,86.7
2019-02-15T06:57:32.531Z,86.3
2019-02-15T07:02:33.720Z,85.7
2019-02-15T07:07:32.614Z,86.2
2019-02-15T07:12:32.588Z,86.1
2019-02-15T07:17:32.417Z,86.2
2019-02-15T07:22:32.549Z,86.4
2019-02-15T07:27:32.555Z,86.6
2019-02-15T07:32:32.571Z,86.1
2019-02-15T07:37:32.619Z,85.3
2019-02-15T07:42:32.580Z,83.3
2019-02-15T07:47:32.408Z,82.6
2019-02-15T07:52:32.937Z,82.1
2019-02-15T07:57:34.254Z,81.7
2019-02-15T08:02:32.642Z,80.4
2019-02-15T08:07:32.605Z,79.9
2019-02-15T08:12:32.437Z,79.7
2019-02-15T08:17:32.573Z,80.9
2019-02-15T08:22:32.617Z,79.8
2019-02-15T08:27:32.403Z,79.4
2019-02-15T08:32:34.480Z,76.6
2019-02-15T08:37:32.584Z,75.9
2019-02-15T08:42:32.650Z,74.2
2019-02-15T08:47:32.448Z,73.7
2019-02-15T08:52:32.596Z,74.1
2019-02-15T08:57:32.686Z,73.4
2019-02-15T09:02:32.584Z,71.8
2019-02-15T09:07:32.483Z,71.1
2019-02-15T09:12:32.647Z,70.6
2019-02-15T09:17:32.791Z,71.7
2019-02-15T09:22:32.466Z,69.5
2019-02-15T09:27:32.640Z,70.3
2019-02-15T09:32:32.699Z,70.3
2019-02-15T09:37:32.743Z,67.8
2019-02-15T09:42:32.517Z,66.3
2019-02-15T09:47:32.705Z,66.1
2019-02-15T09:52:32.722Z,65.4
2019-02-15T09:57:32.652Z,65.1
2019-02-15T10:02:32.693Z,64
2019-02-15T10:07:32.634Z,64.5
2019-02-15T10:12:32.501Z,63
2019-02-15T10:17:32.490Z,62.3
2019-02-15T10:22:32.494Z,63.1
2019-02-15T10:27:32.514Z,63
2019-02-15T10:32:32.498Z,64
2019-02-15T10:37:32.634Z,63.9
2019-02-15T10:42:32.758Z,63.3
2019-02-15T10:47:32.686Z,63.7
2019-02-15T10:52:32.534Z,62.4
2019-02-15T10:57:32.767Z,62.4
2019-02-15T11:02:32.681Z,61.9
2019-02-15T11:07:32.649Z,60.4
2019-02-15T11:12:32.657Z,59.9
2019-02-15T11:17:32.684Z,60.8
2019-02-15T11:22:32.508Z,60.8
2019-02-15T11:27:32.776Z,59.9
2019-02-15T11:32:32.661Z,58.8
2019-02-15T11:37:32.752Z,59.5
2019-02-15T11:42:32.721Z,56.5
2019-02-15T11:47:32.565Z,56.4
2019-02-15T11:52:32.564Z,58.7
2019-02-15T11:57:32.781Z,57.4
2019-02-15T12:02:32.681Z,57.1
2019-02-15T12:07:32.757Z,56
2019-02-15T12:12:32.731Z,55.7
2019-02-15T12:17:32.805Z,55.8
2019-02-15T12:22:32.553Z,54.8
2019-02-15T12:27:32.570Z,56
2019-02-15T12:32:32.795Z,53
2019-02-15T12:37:32.727Z,53.5
2019-02-15T12:42:32.780Z,53.9
2019-02-15T12:47:32.570Z,54.5
2019-02-15T12:52:32.727Z,54.9
2019-02-15T12:57:32.803Z,56
2019-02-15T13:02:32.533Z,55.2
2019-02-15T13:07:32.728Z,55.8
2019-02-15T13:12:32.762Z,57.3
2019-02-15T13:17:32.812Z,55.9
2019-02-15T13:22:32.726Z,55.9
2019-02-15T13:27:32.606Z,55.3
2019-02-15T13:32:32.986Z,54
2019-02-15T13:37:32.849Z,53.8
2019-02-15T13:42:32.605Z,53.2
2019-02-15T13:47:35.292Z,54.3
2019-02-15T13:52:32.619Z,54.6
2019-02-15T13:57:32.696Z,54
2019-02-15T14:02:32.621Z,53.9
2019-02-15T14:07:32.650Z,55.9
2019-02-15T14:12:32.620Z,54.5
2019-02-15T14:17:33.887Z,55.1
2019-02-15T14:22:34.847Z,56.7
2019-02-15T14:27:33.702Z,56.5
2019-02-15T14:32:33.686Z,56.3
2019-02-15T14:37:32.661Z,55.6
2019-02-15T14:42:32.764Z,56.7
2019-02-15T14:47:32.644Z,55.5
2019-02-15T14:52:32.585Z,55.9
2019-02-15T14:57:32.851Z,56.9
2019-02-15T15:02:32.655Z,56.4
2019-02-15T15:07:32.685Z,57.1
2019-02-15T15:12:32.673Z,56.9
2019-02-15T15:17:32.666Z,57.6
2019-02-15T15:22:32.650Z,57.2
2019-02-15T15:27:32.695Z,55.8
2019-02-15T15:32:32.667Z,57.3
2019-02-15T15:37:32.877Z,57.2
2019-02-15T15:42:32.675Z,58
2019-02-15T15:47:33.535Z,59.1
2019-02-15T15:52:32.655Z,60
2019-02-15T15:57:32.721Z,60.4
2019-02-15T16:02:32.707Z,59.9
2019-02-15T16:07:32.727Z,61.2
2019-02-15T16:12:32.674Z,62.1
2019-02-15T16:17:32.938Z,62.2
2019-02-15T16:22:32.737Z,63.9
2019-02-15T16:27:32.688Z,65.3
2019-02-15T16:32:32.712Z,65.3
2019-02-15T16:37:32.718Z,65.7
2019-02-15T16:42:32.718Z,67.3
2019-02-15T16:47:32.721Z,68.5
2019-02-15T16:52:32.708Z,67.2
2019-02-15T16:57:32.826Z,69.9
2019-02-15T17:02:32.750Z,69.8
2019-02-15T17:07:32.733Z,73
2019-02-15T17:12:32.734Z,71.5
2019-02-15T17:17:32.751Z,72.1
2019-02-15T17:22:32.722Z,71.2
2019-02-15T17:27:32.716Z,74.7
2019-02-15T17:32:32.749Z,73.9
2019-02-15T17:37:32.750Z,73.7
2019-02-15T17:42:32.757Z,73.2
2019-02-15T17:47:32.744Z,74.1
2019-02-15T17:52:32.955Z,74.5
2019-02-15T17:57:32.802Z,76
2019-02-15T18:02:32.950Z,74.9
2019-02-15T18:07:33.003Z,74.9
2019-02-15T18:12:33.018Z,74.1
2019-02-15T18:17:32.919Z,75.5
2019-02-15T18:22:32.969Z,75.1
2019-02-15T18:27:32.879Z,76
2019-02-15T18:32:32.920Z,76.3
2019-02-15T18:37:32.756Z,77
2019-02-15T18:42:33.026Z,77.5
2019-02-15T18:47:32.918Z,76
2019-02-15T18:52:32.779Z,77.2
2019-02-15T18:57:33.014Z,78
2019-02-15T19:02:32.927Z,77.5
2019-02-15T19:07:32.975Z,77.8
2019-02-15T19:12:32.782Z,77.1
2019-02-15T19:17:32.804Z,77.7
2019-02-15T19:22:32.906Z,77.7
2019-02-15T19:27:33.007Z,78.8
2019-02-15T19:32:33.120Z,78.6
2019-02-15T19:37:32.968Z,77.9
2019-02-15T19:42:32.819Z,78.8
2019-02-15T19:47:33.077Z,78.9
2019-02-15T19:52:32.959Z,78.9
2019-02-15T19:57:32.821Z,79.7
2019-02-15T20:02:32.985Z,79.7
2019-02-15T20:07:32.878Z,79.2
2019-02-15T20:12:33.069Z,79.1
2019-02-15T20:17:33.327Z,79.8
2019-02-15T20:22:33.918Z,79.1
2019-02-15T20:27:33.150Z,79.4
2019-02-15T20:32:33.072Z,79.4
2019-02-15T20:37:33.041Z,80
2019-02-15T20:42:33.042Z,80.4
2019-02-15T20:47:33.053Z,79.8
2019-02-15T20:52:33.472Z,79.9
2019-02-15T20:57:33.043Z,79.7
2019-02-15T21:02:33.111Z,79.6
2019-02-15T21:07:32.987Z,80.6
2019-02-15T21:12:33.006Z,80.2
2019-02-15T21:17:32.876Z,80
2019-02-15T21:22:33.162Z,80.8
2019-02-15T21:27:32.925Z,80.8
2019-02-15T21:32:33.771Z,80.1
2019-02-15T21:37:33.016Z,80.6
2019-02-15T21:42:32.863Z,79.5
2019-02-15T21:47:32.915Z,80.3
2019-02-15T21:52:32.879Z,81.2
2019-02-15T21:57:33.044Z,80.2
2019-02-15T22:02:33.125Z,80.5
2019-02-15T22:07:32.896Z,80.3
2019-02-15T22:12:32.896Z,79.9
2019-02-15T22:17:32.916Z,80.6
2019-02-15T22:22:32.887Z,80.8
2019-02-15T22:27:32.900Z,80.9
2019-02-15T22:32:32.904Z,81.4
2019-02-15T22:37:32.901Z,80.9
2019-02-15T22:42:32.898Z,81.3
2019-02-15T22:47:32.891Z,80.5
2019-02-15T22:52:32.926Z,81.3
2019-02-15T22:57:33.010Z,80
2019-02-15T23:02:32.959Z,81.6
2019-02-15T23:07:32.903Z,81.8
2019-02-15T23:12:32.926Z,81.5
2019-02-15T23:17:32.971Z,82.3
2019-02-15T23:22:32.882Z,81.1
2019-02-15T23:27:32.927Z,82.2
2019-02-15T23:32:32.920Z,81.9
2019-02-15T23:37:32.886Z,82.2
2019-02-15T23:42:32.922Z,82.3
2019-02-15T23:47:32.915Z,81.7
2019-02-15T23:52:32.933Z,82.4
2019-02-15T23:57:32.937Z,81.9
